sensor_id;sensor_type;location;lat;lon;timestamp;pressure;altitude;pressure_sealevel;temperature;humidity
35649;BME280;21768;48.562;13.414;2022-10-15T00:01:04;96970.56;;;15.08;76.87
35649;BME280;21768;48.562;13.414;2022-10-15T00:03:29;96982.34;;;15.06;77.09
35649;BME280;21768;48.562;13.414;2022-10-15T00:05:54;96981.41;;;15.04;77.19
35649;BME280;21768;48.562;13.414;2022-10-15T00:08:20;96981.34;;;15.03;77.18
35649;BME280;21768;48.562;13.414;2022-10-15T00:10:45;96977.00;;;15.00;77.24
35649;BME280;21768;48.562;13.414;2022-10-15T00:13:11;96983.69;;;14.98;77.20
35649;BME280;21768;48.562;13.414;2022-10-15T00:15:36;96975.22;;;14.97;77.24
35649;BME280;21768;48.562;13.414;2022-10-15T00:18:02;96983.75;;;15.00;77.36
35649;BME280;21768;48.562;13.414;2022-10-15T00:20:27;96978.00;;;15.04;77.37
35649;BME280;21768;48.562;13.414;2022-10-15T00:22:52;96976.47;;;15.07;77.06
35649;BME280;21768;48.562;13.414;2022-10-15T00:25:18;96982.56;;;15.12;77.10
35649;BME280;21768;48.562;13.414;2022-10-15T00:27:43;96983.50;;;15.14;77.03
35649;BME280;21768;48.562;13.414;2022-10-15T00:30:09;96978.41;;;15.14;77.04
35649;BME280;21768;48.562;13.414;2022-10-15T00:32:34;96982.50;;;15.11;77.04
35649;BME280;21768;48.562;13.414;2022-10-15T00:35:00;96973.97;;;15.09;77.07
35649;BME280;21768;48.562;13.414;2022-10-15T00:37:25;96965.50;;;15.08;77.22
35649;BME280;21768;48.562;13.414;2022-10-15T00:39:50;96968.84;;;15.07;77.25
35649;BME280;21768;48.562;13.414;2022-10-15T00:42:16;96973.00;;;15.05;77.45
35649;BME280;21768;48.562;13.414;2022-10-15T00:44:56;96956.06;;;15.06;77.40
35649;BME280;21768;48.562;13.414;2022-10-15T00:47:26;96945.84;;;15.04;77.43
35649;BME280;21768;48.562;13.414;2022-10-15T00:52:38;96938.91;;;15.00;77.52
35649;BME280;21768;48.562;13.414;2022-10-15T00:55:35;96941.38;;;14.98;77.48
35649;BME280;21768;48.562;13.414;2022-10-15T00:58:04;96946.53;;;15.00;77.55
35649;BME280;21768;48.562;13.414;2022-10-15T01:00:31;96930.47;;;15.01;77.53
35649;BME280;21768;48.562;13.414;2022-10-15T01:02:57;96915.22;;;15.01;77.42
35649;BME280;21768;48.562;13.414;2022-10-15T01:05:23;96922.06;;;15.02;77.37
35649;BME280;21768;48.562;13.414;2022-10-15T01:07:48;96921.19;;;15.02;77.64
35649;BME280;21768;48.562;13.414;2022-10-15T01:10:15;96921.91;;;14.99;77.56
35649;BME280;21768;48.562;13.414;2022-10-15T01:18:02;96916.91;;;15.01;77.57
35649;BME280;21768;48.562;13.414;2022-10-15T01:20:51;96915.09;;;14.98;77.59
35649;BME280;21768;48.562;13.414;2022-10-15T01:23:35;96915.78;;;14.94;77.44
35649;BME280;21768;48.562;13.414;2022-10-15T01:29:13;96905.63;;;14.94;77.51
35649;BME280;21768;48.562;13.414;2022-10-15T01:31:49;96903.09;;;14.94;77.59
35649;BME280;21768;48.562;13.414;2022-10-15T01:34:24;96898.81;;;14.93;77.50
35649;BME280;21768;48.562;13.414;2022-10-15T01:39:38;96885.97;;;14.90;77.62
35649;BME280;21768;48.562;13.414;2022-10-15T01:44:43;96879.91;;;14.86;77.55
35649;BME280;21768;48.562;13.414;2022-10-15T01:49:44;96879.75;;;14.82;77.91
35649;BME280;21768;48.562;13.414;2022-10-15T01:52:14;96876.50;;;14.86;77.75
35649;BME280;21768;48.562;13.414;2022-10-15T01:54:41;96878.28;;;14.88;77.65
35649;BME280;21768;48.562;13.414;2022-10-15T01:57:08;96875.69;;;14.87;77.60
35649;BME280;21768;48.562;13.414;2022-10-15T01:59:35;96870.63;;;14.87;77.65
35649;BME280;21768;48.562;13.414;2022-10-15T02:02:00;96868.06;;;14.87;77.64
35649;BME280;21768;48.562;13.414;2022-10-15T02:04:28;96865.53;;;14.87;77.45
35649;BME280;21768;48.562;13.414;2022-10-15T02:07:14;96866.47;;;14.89;77.77
35649;BME280;21768;48.562;13.414;2022-10-15T02:14:58;96852.69;;;14.82;77.85
35649;BME280;21768;48.562;13.414;2022-10-15T02:17:42;96856.97;;;14.85;77.88
35649;BME280;21768;48.562;13.414;2022-10-15T02:20:21;96851.09;;;14.86;77.87
35649;BME280;21768;48.562;13.414;2022-10-15T02:22:58;96849.44;;;14.86;78.06
35649;BME280;21768;48.562;13.414;2022-10-15T02:25:25;96833.44;;;14.89;77.94
35649;BME280;21768;48.562;13.414;2022-10-15T02:27:54;96832.56;;;14.88;77.99
35649;BME280;21768;48.562;13.414;2022-10-15T02:30:21;96830.63;;;14.81;77.97
35649;BME280;21768;48.562;13.414;2022-10-15T02:32:51;96838.19;;;14.80;78.15
35649;BME280;21768;48.562;13.414;2022-10-15T02:35:18;96830.56;;;14.80;78.42
35649;BME280;21768;48.562;13.414;2022-10-15T02:37:48;96817.88;;;14.80;78.17
35649;BME280;21768;48.562;13.414;2022-10-15T02:40:15;96822.03;;;14.78;78.35
35649;BME280;21768;48.562;13.414;2022-10-15T02:42:40;96821.22;;;14.79;78.34
35649;BME280;21768;48.562;13.414;2022-10-15T02:45:06;96825.44;;;14.78;78.18
35649;BME280;21768;48.562;13.414;2022-10-15T02:47:32;96827.97;;;14.78;78.19
35649;BME280;21768;48.562;13.414;2022-10-15T02:49:57;96826.28;;;14.79;78.25
35649;BME280;21768;48.562;13.414;2022-10-15T02:52:23;96834.84;;;14.81;78.20
35649;BME280;21768;48.562;13.414;2022-10-15T02:54:48;96833.28;;;14.84;78.42
35649;BME280;21768;48.562;13.414;2022-10-15T02:57:14;96835.84;;;14.84;78.18
35649;BME280;21768;48.562;13.414;2022-10-15T02:59:39;96834.25;;;14.88;78.17
35649;BME280;21768;48.562;13.414;2022-10-15T03:02:05;96834.25;;;14.88;78.33
35649;BME280;21768;48.562;13.414;2022-10-15T03:04:30;96826.63;;;14.88;78.33
35649;BME280;21768;48.562;13.414;2022-10-15T03:06:55;96830.91;;;14.89;78.27
35649;BME280;21768;48.562;13.414;2022-10-15T03:09:21;96833.50;;;14.90;78.36
35649;BME280;21768;48.562;13.414;2022-10-15T03:11:46;96833.56;;;14.92;78.34
35649;BME280;21768;48.562;13.414;2022-10-15T03:14:12;96831.84;;;14.91;78.27
35649;BME280;21768;48.562;13.414;2022-10-15T03:16:37;96835.31;;;14.93;78.31
35649;BME280;21768;48.562;13.414;2022-10-15T03:19:02;96831.97;;;14.94;78.31
35649;BME280;21768;48.562;13.414;2022-10-15T03:21:28;96833.69;;;14.95;78.18
35649;BME280;21768;48.562;13.414;2022-10-15T03:23:56;96836.16;;;14.93;78.34
35649;BME280;21768;48.562;13.414;2022-10-15T03:26:22;96832.69;;;14.91;78.41
35649;BME280;21768;48.562;13.414;2022-10-15T03:28:47;96829.34;;;14.92;78.23
35649;BME280;21768;48.562;13.414;2022-10-15T03:31:12;96832.75;;;14.93;78.36
35649;BME280;21768;48.562;13.414;2022-10-15T03:33:38;96836.97;;;14.92;78.54
35649;BME280;21768;48.562;13.414;2022-10-15T03:36:04;96842.84;;;14.91;78.41
35649;BME280;21768;48.562;13.414;2022-10-15T03:38:29;96838.53;;;14.89;78.46
35649;BME280;21768;48.562;13.414;2022-10-15T03:40:54;96842.00;;;14.91;78.35
35649;BME280;21768;48.562;13.414;2022-10-15T03:43:23;96835.97;;;14.89;78.27
35649;BME280;21768;48.562;13.414;2022-10-15T03:45:49;96846.81;;;14.85;78.26
35649;BME280;21768;48.562;13.414;2022-10-15T03:48:14;96844.19;;;14.82;78.51
35649;BME280;21768;48.562;13.414;2022-10-15T03:50:40;96846.72;;;14.82;78.75
35649;BME280;21768;48.562;13.414;2022-10-15T03:53:05;96831.50;;;14.82;78.50
35649;BME280;21768;48.562;13.414;2022-10-15T03:55:31;96837.19;;;14.76;78.70
35649;BME280;21768;48.562;13.414;2022-10-15T03:57:57;96839.88;;;14.58;78.86
35649;BME280;21768;48.562;13.414;2022-10-15T04:00:22;96842.72;;;14.45;79.35
35649;BME280;21768;48.562;13.414;2022-10-15T04:02:48;96837.22;;;14.36;79.52
35649;BME280;21768;48.562;13.414;2022-10-15T04:05:13;96831.25;;;14.34;79.85
35649;BME280;21768;48.562;13.414;2022-10-15T04:07:38;96834.81;;;14.39;79.79
35649;BME280;21768;48.562;13.414;2022-10-15T04:10:04;96826.56;;;14.43;79.65
35649;BME280;21768;48.562;13.414;2022-10-15T04:12:29;96824.13;;;14.46;79.64
35649;BME280;21768;48.562;13.414;2022-10-15T04:14:55;96829.28;;;14.48;79.63
35649;BME280;21768;48.562;13.414;2022-10-15T04:17:20;96821.84;;;14.52;79.62
35649;BME280;21768;48.562;13.414;2022-10-15T04:19:45;96823.53;;;14.52;79.34
35649;BME280;21768;48.562;13.414;2022-10-15T04:22:11;96831.75;;;14.46;79.64
35649;BME280;21768;48.562;13.414;2022-10-15T04:24:36;96829.16;;;14.45;79.78
35649;BME280;21768;48.562;13.414;2022-10-15T04:27:02;96825.75;;;14.44;79.70
35649;BME280;21768;48.562;13.414;2022-10-15T04:29:27;96824.13;;;14.46;79.71
35649;BME280;21768;48.562;13.414;2022-10-15T04:31:53;96822.53;;;14.48;79.74
35649;BME280;21768;48.562;13.414;2022-10-15T04:34:18;96819.94;;;14.47;79.79
35649;BME280;21768;48.562;13.414;2022-10-15T04:36:43;96825.81;;;14.46;79.80
35649;BME280;21768;48.562;13.414;2022-10-15T04:39:09;96821.47;;;14.43;79.97
35649;BME280;21768;48.562;13.414;2022-10-15T04:41:34;96827.34;;;14.42;79.92
35649;BME280;21768;48.562;13.414;2022-10-15T04:43:59;96825.81;;;14.46;79.89
35649;BME280;21768;48.562;13.414;2022-10-15T04:46:25;96833.50;;;14.47;80.04
35649;BME280;21768;48.562;13.414;2022-10-15T04:48:51;96826.88;;;14.51;79.80
35649;BME280;21768;48.562;13.414;2022-10-15T04:51:20;96818.38;;;14.50;79.61
35649;BME280;21768;48.562;13.414;2022-10-15T04:53:46;96823.06;;;14.41;79.89
35649;BME280;21768;48.562;13.414;2022-10-15T04:56:16;96822.91;;;14.38;79.99
35649;BME280;21768;48.562;13.414;2022-10-15T04:58:43;96814.66;;;14.42;79.98
35649;BME280;21768;48.562;13.414;2022-10-15T05:01:11;96819.06;;;14.46;79.83
35649;BME280;21768;48.562;13.414;2022-10-15T05:03:38;96821.19;;;14.37;79.85
35649;BME280;21768;48.562;13.414;2022-10-15T05:06:15;96812.53;;;14.32;79.99
35649;BME280;21768;48.562;13.414;2022-10-15T05:08:41;96826.03;;;14.31;80.17
35649;BME280;21768;48.562;13.414;2022-10-15T05:11:10;96820.81;;;14.28;80.06
35649;BME280;21768;48.562;13.414;2022-10-15T05:13:36;96808.34;;;14.33;80.22
35649;BME280;21768;48.562;13.414;2022-10-15T05:16:12;96819.44;;;14.36;80.25
35649;BME280;21768;48.562;13.414;2022-10-15T05:18:39;96822.91;;;14.38;80.09
35649;BME280;21768;48.562;13.414;2022-10-15T05:21:05;96819.56;;;14.39;79.95
35649;BME280;21768;48.562;13.414;2022-10-15T05:23:30;96816.25;;;14.40;79.91
35649;BME280;21768;48.562;13.414;2022-10-15T05:26:00;96816.91;;;14.36;80.21
35649;BME280;21768;48.562;13.414;2022-10-15T05:28:25;96818.72;;;14.39;80.00
35649;BME280;21768;48.562;13.414;2022-10-15T05:30:51;96817.25;;;14.44;80.04
35649;BME280;21768;48.562;13.414;2022-10-15T05:33:16;96825.22;;;14.32;79.84
35649;BME280;21768;48.562;13.414;2022-10-15T05:35:42;96820.56;;;14.22;80.32
35649;BME280;21768;48.562;13.414;2022-10-15T05:38:07;96830.53;;;14.17;80.63
35649;BME280;21768;48.562;13.414;2022-10-15T05:40:33;96827.91;;;14.16;80.73
35649;BME280;21768;48.562;13.414;2022-10-15T05:42:58;96823.91;;;14.21;80.52
35649;BME280;21768;48.562;13.414;2022-10-15T05:45:23;96817.09;;;14.20;80.52
35649;BME280;21768;48.562;13.414;2022-10-15T05:47:53;96815.22;;;14.16;80.63
35649;BME280;21768;48.562;13.414;2022-10-15T05:50:18;96826.31;;;14.18;80.65
35649;BME280;21768;48.562;13.414;2022-10-15T05:52:44;96828.84;;;14.18;80.40
35649;BME280;21768;48.562;13.414;2022-10-15T05:55:09;96831.38;;;14.18;80.79
35649;BME280;21768;48.562;13.414;2022-10-15T05:57:35;96821.91;;;14.14;80.66
35649;BME280;21768;48.562;13.414;2022-10-15T06:00:01;96818.44;;;14.12;80.69
35649;BME280;21768;48.562;13.414;2022-10-15T06:02:26;96828.34;;;14.06;81.01
35649;BME280;21768;48.562;13.414;2022-10-15T06:04:51;96821.78;;;14.11;81.18
35649;BME280;21768;48.562;13.414;2022-10-15T06:07:17;96822.03;;;14.17;81.20
35649;BME280;21768;48.562;13.414;2022-10-15T06:09:43;96820.56;;;14.22;81.20
35649;BME280;21768;48.562;13.414;2022-10-15T06:12:08;96818.09;;;14.23;80.71
35649;BME280;21768;48.562;13.414;2022-10-15T06:14:33;96819.09;;;14.27;80.94
35649;BME280;21768;48.562;13.414;2022-10-15T06:16:59;96812.66;;;14.35;80.71
35649;BME280;21768;48.562;13.414;2022-10-15T06:19:24;96819.34;;;14.33;80.49
35649;BME280;21768;48.562;13.414;2022-10-15T06:21:50;96821.13;;;14.36;80.52
35649;BME280;21768;48.562;13.414;2022-10-15T06:24:15;96817.78;;;14.37;80.58
35649;BME280;21768;48.562;13.414;2022-10-15T06:26:40;96822.84;;;14.37;80.97
35649;BME280;21768;48.562;13.414;2022-10-15T06:29:06;96824.00;;;14.43;80.75
35649;BME280;21768;48.562;13.414;2022-10-15T06:31:31;96818.25;;;14.47;80.52
35649;BME280;21768;48.562;13.414;2022-10-15T06:33:56;96824.31;;;14.51;80.60
35649;BME280;21768;48.562;13.414;2022-10-15T06:36:22;96828.00;;;14.57;80.44
35649;BME280;21768;48.562;13.414;2022-10-15T06:38:49;96824.81;;;14.63;80.33
35649;BME280;21768;48.562;13.414;2022-10-15T06:41:15;96838.44;;;14.65;80.53
35649;BME280;21768;48.562;13.414;2022-10-15T06:43:41;96835.22;;;14.69;80.47
35649;BME280;21768;48.562;13.414;2022-10-15T06:46:06;96829.63;;;14.78;80.23
35649;BME280;21768;48.562;13.414;2022-10-15T06:48:33;96826.41;;;14.82;79.96
35649;BME280;21768;48.562;13.414;2022-10-15T06:50:59;96823.94;;;14.83;80.14
35649;BME280;21768;48.562;13.414;2022-10-15T06:53:25;96826.50;;;14.85;79.77
35649;BME280;21768;48.562;13.414;2022-10-15T06:55:51;96832.97;;;14.77;79.96
35649;BME280;21768;48.562;13.414;2022-10-15T06:58:16;96831.00;;;14.70;80.16
35649;BME280;21768;48.562;13.414;2022-10-15T07:00:41;96833.34;;;14.65;80.20
35649;BME280;21768;48.562;13.414;2022-10-15T07:03:07;96835.94;;;14.67;80.55
35649;BME280;21768;48.562;13.414;2022-10-15T07:05:33;96837.81;;;14.71;80.25
35649;BME280;21768;48.562;13.414;2022-10-15T07:07:59;96835.53;;;14.77;80.33
35649;BME280;21768;48.562;13.414;2022-10-15T07:10:26;96836.56;;;14.82;80.17
35649;BME280;21768;48.562;13.414;2022-10-15T07:12:52;96839.91;;;14.81;80.29
35649;BME280;21768;48.562;13.414;2022-10-15T07:15:19;96851.69;;;14.79;80.27
35649;BME280;21768;48.562;13.414;2022-10-15T07:17:49;96849.09;;;14.77;80.63
35649;BME280;21768;48.562;13.414;2022-10-15T07:20:15;96849.22;;;14.80;80.67
35649;BME280;21768;48.562;13.414;2022-10-15T07:22:41;96844.41;;;14.88;80.42
35649;BME280;21768;48.562;13.414;2022-10-15T07:25:07;96848.22;;;14.77;80.81
35649;BME280;21768;48.562;13.414;2022-10-15T07:27:34;96845.75;;;14.78;80.94
35649;BME280;21768;48.562;13.414;2022-10-15T07:30:00;96851.06;;;14.84;80.98
35649;BME280;21768;48.562;13.414;2022-10-15T07:32:25;96845.34;;;14.90;81.01
35649;BME280;21768;48.562;13.414;2022-10-15T07:34:51;96853.22;;;14.96;80.90
35649;BME280;21768;48.562;13.414;2022-10-15T07:37:17;96849.19;;;15.01;80.56
35649;BME280;21768;48.562;13.414;2022-10-15T07:39:42;96853.56;;;15.05;80.60
35649;BME280;21768;48.562;13.414;2022-10-15T07:42:07;96854.59;;;15.10;80.46
35649;BME280;21768;48.562;13.414;2022-10-15T07:44:33;96858.31;;;15.18;80.34
35649;BME280;21768;48.562;13.414;2022-10-15T07:46:58;96856.19;;;15.29;80.23
35649;BME280;21768;48.562;13.414;2022-10-15T07:49:23;96857.22;;;15.34;80.06
35649;BME280;21768;48.562;13.414;2022-10-15T07:51:49;96857.16;;;15.32;79.82
35649;BME280;21768;48.562;13.414;2022-10-15T07:54:14;96854.50;;;15.29;80.09
35649;BME280;21768;48.562;13.414;2022-10-15T07:56:39;96863.16;;;15.35;79.84
35649;BME280;21768;48.562;13.414;2022-10-15T07:59:07;96858.19;;;15.38;79.82
35649;BME280;21768;48.562;13.414;2022-10-15T08:01:32;96851.72;;;15.46;79.54
35649;BME280;21768;48.562;13.414;2022-10-15T08:03:57;96851.13;;;15.53;79.91
35649;BME280;21768;48.562;13.414;2022-10-15T08:06:23;96862.53;;;15.62;79.43
35649;BME280;21768;48.562;13.414;2022-10-15T08:08:48;96855.81;;;15.64;79.50
35649;BME280;21768;48.562;13.414;2022-10-15T08:11:15;96847.50;;;15.69;79.57
35649;BME280;21768;48.562;13.414;2022-10-15T08:13:42;96855.41;;;15.76;79.24
35649;BME280;21768;48.562;13.414;2022-10-15T08:16:09;96862.88;;;15.72;79.26
35649;BME280;21768;48.562;13.414;2022-10-15T08:18:35;96865.47;;;15.73;79.29
35649;BME280;21768;48.562;13.414;2022-10-15T08:21:03;96863.09;;;15.78;79.12
35649;BME280;21768;48.562;13.414;2022-10-15T08:23:28;96864.06;;;15.81;78.96
35649;BME280;21768;48.562;13.414;2022-10-15T08:25:56;96871.97;;;15.89;79.27
35649;BME280;21768;48.562;13.414;2022-10-15T08:28:22;96866.13;;;15.91;78.76
35649;BME280;21768;48.562;13.414;2022-10-15T08:30:47;96872.88;;;15.91;78.67
35649;BME280;21768;48.562;13.414;2022-10-15T08:33:13;96873.88;;;15.94;78.83
35649;BME280;21768;48.562;13.414;2022-10-15T08:35:42;96882.41;;;15.96;78.78
35649;BME280;21768;48.562;13.414;2022-10-15T08:38:09;96874.84;;;15.98;78.75
35649;BME280;21768;48.562;13.414;2022-10-15T08:40:34;96881.56;;;15.96;79.06
35649;BME280;21768;48.562;13.414;2022-10-15T08:43:00;96888.31;;;15.95;78.86
35649;BME280;21768;48.562;13.414;2022-10-15T08:45:38;96887.16;;;15.87;78.79
35649;BME280;21768;48.562;13.414;2022-10-15T08:48:11;96887.97;;;15.86;79.13
35649;BME280;21768;48.562;13.414;2022-10-15T08:50:56;96896.88;;;15.97;79.00
35649;BME280;21768;48.562;13.414;2022-10-15T08:53:24;96909.03;;;16.05;78.78
35649;BME280;21768;48.562;13.414;2022-10-15T08:55:54;96904.91;;;16.08;78.98
35649;BME280;21768;48.562;13.414;2022-10-15T09:01:00;96905.03;;;16.13;79.13
35649;BME280;21768;48.562;13.414;2022-10-15T09:06:25;96919.19;;;16.28;78.84
35649;BME280;21768;48.562;13.414;2022-10-15T09:08:58;96922.72;;;16.32;78.72
35649;BME280;21768;48.562;13.414;2022-10-15T09:14:05;96928.69;;;16.32;78.95
35649;BME280;21768;48.562;13.414;2022-10-15T09:16:36;96926.13;;;16.32;79.20
35649;BME280;21768;48.562;13.414;2022-10-15T09:19:05;96925.16;;;16.29;78.94
35649;BME280;21768;48.562;13.414;2022-10-15T09:21:36;96931.88;;;16.27;78.82
35649;BME280;21768;48.562;13.414;2022-10-15T09:24:02;96932.03;;;16.31;79.04
35649;BME280;21768;48.562;13.414;2022-10-15T09:27:08;96940.09;;;16.44;79.09
35649;BME280;21768;48.562;13.414;2022-10-15T09:29:41;96937.75;;;16.50;78.67
35649;BME280;21768;48.562;13.414;2022-10-15T09:34:47;96936.47;;;16.62;78.72
35649;BME280;21768;48.562;13.414;2022-10-15T09:44:53;96943.09;;;16.81;79.09
35649;BME280;21768;48.562;13.414;2022-10-15T09:47:26;96954.16;;;16.82;78.98
35649;BME280;21768;48.562;13.414;2022-10-15T09:49:51;96955.78;;;16.80;78.79
35649;BME280;21768;48.562;13.414;2022-10-15T09:55:10;96967.78;;;16.84;79.10
35649;BME280;21768;48.562;13.414;2022-10-15T09:57:41;96967.78;;;16.84;79.29
35649;BME280;21768;48.562;13.414;2022-10-15T10:00:10;96978.81;;;16.83;79.01
35649;BME280;21768;48.562;13.414;2022-10-15T10:02:37;96975.50;;;16.85;79.17
35649;BME280;21768;48.562;13.414;2022-10-15T10:05:29;96981.63;;;16.90;79.08
35649;BME280;21768;48.562;13.414;2022-10-15T10:08:15;96984.28;;;16.93;79.09
35649;BME280;21768;48.562;13.414;2022-10-15T10:10:44;96985.25;;;16.97;79.27
35649;BME280;21768;48.562;13.414;2022-10-15T10:13:27;96987.19;;;17.04;79.35
35649;BME280;21768;48.562;13.414;2022-10-15T10:15:55;96981.50;;;17.13;79.39
35649;BME280;21768;48.562;13.414;2022-10-15T10:18:26;96985.94;;;17.18;79.37
35649;BME280;21768;48.562;13.414;2022-10-15T10:20:57;96985.94;;;17.18;78.99
35649;BME280;21768;48.562;13.414;2022-10-15T10:23:28;96980.94;;;17.21;79.00
35649;BME280;21768;48.562;13.414;2022-10-15T10:25:55;96985.22;;;17.22;79.01
35649;BME280;21768;48.562;13.414;2022-10-15T10:28:28;96990.28;;;17.21;79.12
35649;BME280;21768;48.562;13.414;2022-10-15T10:33:27;96980.94;;;17.21;79.66
35649;BME280;21768;48.562;13.414;2022-10-15T10:35:54;96985.44;;;17.28;79.95
35649;BME280;21768;48.562;13.414;2022-10-15T10:38:38;96989.88;;;17.35;79.90
35649;BME280;21768;48.562;13.414;2022-10-15T10:41:10;96992.75;;;17.45;79.67
35649;BME280;21768;48.562;13.414;2022-10-15T10:43:37;96987.06;;;17.53;79.72
35649;BME280;21768;48.562;13.414;2022-10-15T10:46:04;96991.25;;;17.51;79.40
35649;BME280;21768;48.562;13.414;2022-10-15T10:48:45;96992.78;;;17.46;79.12
35649;BME280;21768;48.562;13.414;2022-10-15T10:51:24;97001.38;;;17.48;79.20
35649;BME280;21768;48.562;13.414;2022-10-15T10:54:03;97009.22;;;17.54;79.19
35649;BME280;21768;48.562;13.414;2022-10-15T10:59:09;97003.25;;;17.54;79.03
35649;BME280;21768;48.562;13.414;2022-10-15T11:01:37;96996.38;;;17.51;78.66
35649;BME280;21768;48.562;13.414;2022-10-15T11:04:03;96999.78;;;17.52;78.76
35649;BME280;21768;48.562;13.414;2022-10-15T11:20:07;97018.19;;;17.68;79.17
35649;BME280;21768;48.562;13.414;2022-10-15T11:23:02;97007.03;;;17.93;78.09
35649;BME280;21768;48.562;13.414;2022-10-15T11:25:53;97007.47;;;18.09;77.90
35649;BME280;21768;48.562;13.414;2022-10-15T11:38:07;97003.34;;;18.42;77.55
35649;BME280;21768;48.562;13.414;2022-10-15T11:40:05;97009.03;;;18.62;77.30
35649;BME280;21768;48.562;13.414;2022-10-15T11:45:50;97012.16;;;18.83;77.42
35649;BME280;21768;48.562;13.414;2022-10-15T11:48:28;97013.31;;;18.94;76.77
35649;BME280;21768;48.562;13.414;2022-10-15T11:51:29;97003.50;;;19.11;76.64
35649;BME280;21768;48.562;13.414;2022-10-15T11:56:45;97005.31;;;19.86;74.68
35649;BME280;21768;48.562;13.414;2022-10-15T12:01:53;97010.94;;;20.09;74.37
35649;BME280;21768;48.562;13.414;2022-10-15T12:04:43;97015.94;;;20.02;74.16
35649;BME280;21768;48.562;13.414;2022-10-15T12:07:15;97008.94;;;19.95;73.83
35649;BME280;21768;48.562;13.414;2022-10-15T12:09:47;97013.94;;;19.89;73.59
35649;BME280;21768;48.562;13.414;2022-10-15T12:14:49;97000.22;;;19.87;74.45
35649;BME280;21768;48.562;13.414;2022-10-15T12:17:23;96999.03;;;20.11;74.22
35649;BME280;21768;48.562;13.414;2022-10-15T12:20:06;96990.78;;;20.66;72.76
35649;BME280;21768;48.562;13.414;2022-10-15T12:22:52;96985.81;;;21.20;70.90
35649;BME280;21768;48.562;13.414;2022-10-15T12:30:34;96988.88;;;22.10;67.07
35649;BME280;21768;48.562;13.414;2022-10-15T12:33:18;96990.13;;;21.77;68.19
35649;BME280;21768;48.562;13.414;2022-10-15T12:35:53;96991.94;;;21.30;67.81
35649;BME280;21768;48.562;13.414;2022-10-15T12:38:40;96987.94;;;20.97;69.41
35649;BME280;21768;48.562;13.414;2022-10-15T12:41:11;96991.91;;;20.82;69.22
35649;BME280;21768;48.562;13.414;2022-10-15T12:43:41;96999.63;;;20.82;69.05
35649;BME280;21768;48.562;13.414;2022-10-15T12:46:09;96990.38;;;20.90;69.55
35649;BME280;21768;48.562;13.414;2022-10-15T12:48:38;96995.66;;;20.97;68.62
35649;BME280;21768;48.562;13.414;2022-10-15T12:53:51;96992.69;;;21.23;67.92
35649;BME280;21768;48.562;13.414;2022-10-15T12:56:23;96997.38;;;21.47;68.42
35649;BME280;21768;48.562;13.414;2022-10-15T12:58:54;97001.22;;;21.75;65.32
35649;BME280;21768;48.562;13.414;2022-10-15T13:08:49;96997.22;;;20.91;67.67
35649;BME280;21768;48.562;13.414;2022-10-15T13:11:37;96993.50;;;20.74;68.03
35649;BME280;21768;48.562;13.414;2022-10-15T13:16:34;96999.94;;;20.53;69.07
35649;BME280;21768;48.562;13.414;2022-10-15T13:19:02;96997.34;;;20.50;68.96
35649;BME280;21768;48.562;13.414;2022-10-15T13:21:48;97006.75;;;20.51;69.30
35649;BME280;21768;48.562;13.414;2022-10-15T13:24:21;96990.59;;;20.57;69.46
35649;BME280;21768;48.562;13.414;2022-10-15T13:26:47;96995.94;;;20.67;68.04
35649;BME280;21768;48.562;13.414;2022-10-15T13:29:24;96995.16;;;20.71;68.31
35649;BME280;21768;48.562;13.414;2022-10-15T13:31:51;96995.50;;;20.90;68.20
35649;BME280;21768;48.562;13.414;2022-10-15T13:34:30;97005.06;;;20.98;68.53
35649;BME280;21768;48.562;13.414;2022-10-15T13:36:59;97001.63;;;20.96;69.44
35649;BME280;21768;48.562;13.414;2022-10-15T13:39:36;96997.28;;;20.94;70.11
35649;BME280;21768;48.562;13.414;2022-10-15T13:44:37;96999.25;;;20.62;70.89
35649;BME280;21768;48.562;13.414;2022-10-15T13:47:02;96999.75;;;20.44;71.76
35649;BME280;21768;48.562;13.414;2022-10-15T13:49:41;96995.91;;;20.24;72.63
35649;BME280;21768;48.562;13.414;2022-10-15T13:52:07;96998.88;;;20.04;73.01
35649;BME280;21768;48.562;13.414;2022-10-15T13:54:32;97000.38;;;19.93;73.37
35649;BME280;21768;48.562;13.414;2022-10-15T13:56:59;96998.50;;;19.86;73.69
35649;BME280;21768;48.562;13.414;2022-10-15T13:59:28;96993.94;;;19.73;74.10
35649;BME280;21768;48.562;13.414;2022-10-15T14:01:59;97010.81;;;19.65;74.59
35649;BME280;21768;48.562;13.414;2022-10-15T14:04:28;97011.53;;;19.59;74.56
35649;BME280;21768;48.562;13.414;2022-10-15T14:07:02;97008.66;;;19.47;74.55
35649;BME280;21768;48.562;13.414;2022-10-15T14:09:31;97008.44;;;19.38;74.06
35649;BME280;21768;48.562;13.414;2022-10-15T14:11:58;97012.31;;;19.22;74.67
35649;BME280;21768;48.562;13.414;2022-10-15T14:17:01;97022.22;;;19.10;75.70
35649;BME280;21768;48.562;13.414;2022-10-15T14:19:28;97019.88;;;19.18;75.82
35649;BME280;21768;48.562;13.414;2022-10-15T14:21:56;97011.38;;;19.19;75.75
35649;BME280;21768;48.562;13.414;2022-10-15T14:24:36;97013.16;;;19.21;75.70
35649;BME280;21768;48.562;13.414;2022-10-15T14:27:12;97018.34;;;19.24;75.97
35649;BME280;21768;48.562;13.414;2022-10-15T14:29:44;97018.34;;;19.24;75.37
35649;BME280;21768;48.562;13.414;2022-10-15T14:34:42;97031.78;;;19.17;75.71
35649;BME280;21768;48.562;13.414;2022-10-15T14:47:40;97027.78;;;19.61;75.72
35649;BME280;21768;48.562;13.414;2022-10-15T14:50:09;97026.28;;;19.69;75.82
35649;BME280;21768;48.562;13.414;2022-10-15T14:52:36;97033.84;;;19.65;75.43
35649;BME280;21768;48.562;13.414;2022-10-15T14:55:32;97032.00;;;19.59;75.46
35649;BME280;21768;48.562;13.414;2022-10-15T14:58:10;97028.47;;;19.53;75.52
35649;BME280;21768;48.562;13.414;2022-10-15T15:00:43;97035.22;;;19.51;75.79